createdAt,value
2016-09-13T00:00:58.930Z,89.99
2016-09-13T00:01:58.920Z,89.99
2016-09-13T00:02:59.434Z,90.28
2016-09-13T00:04:00.449Z,91.09
2016-09-13T00:04:59.848Z,90.52
2016-09-13T00:05:58.874Z,90.81
2016-09-13T00:06:58.878Z,90.61
2016-09-13T00:08:00.091Z,90.56
2016-09-13T00:08:59.566Z,90.28
2016-09-13T00:09:59.154Z,90.71
2016-09-13T00:10:59.962Z,90.81
2016-09-13T00:11:59.548Z,91.38
2016-09-13T00:13:00.352Z,92.63
2016-09-13T00:13:59.094Z,93.06
2016-09-13T00:15:00.083Z,92.3
2016-09-13T00:15:59.192Z,92.1
2016-09-13T00:16:59.177Z,92.63
2016-09-13T00:17:59.528Z,92.58
2016-09-13T00:18:59.939Z,93.26
2016-09-13T00:19:59.108Z,92.68
2016-09-13T00:20:59.487Z,91.82
2016-09-13T00:21:59.650Z,92.44
2016-09-13T00:22:59.495Z,93.16
2016-09-13T00:23:59.018Z,92.58
2016-09-13T00:24:59.623Z,92.2
2016-09-13T00:25:59.664Z,92.24
2016-09-13T00:27:00.187Z,91.77
2016-09-13T00:28:00.032Z,91.72
2016-09-13T00:28:59.813Z,91.82
2016-09-13T00:29:59.606Z,91.34
2016-09-13T00:30:59.678Z,91.48
2016-09-13T00:32:00.118Z,92.24
2016-09-13T00:33:00.006Z,91.86
2016-09-13T00:33:59.522Z,91.91
2016-09-13T00:34:59.919Z,92.01
2016-09-13T00:35:59.737Z,91.82
2016-09-13T00:37:00.763Z,91.86
2016-09-13T00:38:00.419Z,92.05
2016-09-13T00:39:00.106Z,91.96
2016-09-13T00:40:00.088Z,91.67
2016-09-13T00:41:00.730Z,91.86
2016-09-13T00:42:00.127Z,91.67
2016-09-13T00:43:00.109Z,91.53
2016-09-13T00:44:00.127Z,91.67
2016-09-13T00:45:00.254Z,91.86
2016-09-13T00:45:59.539Z,91.57
2016-09-13T00:47:01.733Z,93.11
2016-09-13T00:48:00.458Z,93.78
2016-09-13T00:48:59.878Z,93.98
2016-09-13T00:50:00.353Z,93.98
2016-09-13T00:51:01.954Z,93.49
2016-09-13T00:52:00.002Z,93.3
2016-09-13T00:53:00.317Z,93.21
2016-09-13T00:53:59.937Z,93.21
2016-09-13T00:55:00.165Z,92.58
2016-09-13T00:56:00.314Z,92.2
2016-09-13T00:56:59.659Z,92.39
2016-09-13T00:58:00.348Z,92.01
2016-09-13T00:59:01.142Z,92.49
2016-09-13T01:00:00.561Z,92.3
2016-09-13T01:01:00.902Z,92.58
2016-09-13T01:02:01.832Z,92.39
2016-09-13T01:03:00.463Z,93.44
2016-09-13T01:04:00.059Z,93.73
2016-09-13T01:05:00.739Z,93.63
2016-09-13T01:05:59.761Z,93.73
2016-09-13T01:07:00.444Z,93.49
2016-09-13T01:08:00.604Z,93.35
2016-09-13T01:09:00.565Z,93.35
2016-09-13T01:10:00.578Z,93.26
2016-09-13T01:11:01.005Z,93.16
2016-09-13T01:12:00.348Z,93.73
2016-09-13T01:13:00.932Z,92.97
2016-09-13T01:14:01.079Z,92.97
2016-09-13T01:15:00.492Z,93.35
2016-09-13T01:16:01.332Z,93.06
2016-09-13T01:17:00.645Z,93.35
2016-09-13T01:18:00.631Z,93.44
2016-09-13T01:19:00.943Z,94.64
2016-09-13T01:20:00.807Z,94.07
2016-09-13T01:21:01.275Z,94.45
2016-09-13T01:22:00.817Z,94.45
2016-09-13T01:23:00.565Z,93.98
2016-09-13T01:24:00.993Z,94.84
2016-09-13T01:25:00.896Z,94.55
2016-09-13T01:26:01.123Z,94.55
2016-09-13T01:27:01.490Z,94.45
2016-09-13T01:28:01.383Z,94.64
2016-09-13T01:29:00.673Z,93.88
2016-09-13T01:30:00.710Z,93.49
2016-09-13T01:31:02.193Z,93.21
2016-09-13T01:32:01.562Z,93.11
2016-09-13T01:33:00.992Z,92.35
2016-09-13T01:34:01.173Z,92.92
2016-09-13T01:35:01.494Z,93.21
2016-09-13T01:36:01.252Z,92.54
2016-09-13T01:37:01.339Z,93.02
2016-09-13T01:38:01.463Z,93.02
2016-09-13T01:39:01.254Z,92.44
2016-09-13T01:40:00.921Z,92.82
2016-09-13T01:41:01.123Z,92.82
2016-09-13T01:42:01.195Z,92.49
2016-09-13T01:43:01.682Z,93.49
2016-09-13T01:44:01.610Z,94.74
2016-09-13T01:45:01.020Z,94.17
2016-09-13T01:46:00.756Z,93.88
2016-09-13T01:47:01.164Z,93.21
2016-09-13T01:48:01.182Z,93.59
2016-09-13T01:49:02.727Z,93.4
2016-09-13T01:50:01.795Z,93.4
2016-09-13T01:51:01.936Z,92.92
2016-09-13T01:52:01.209Z,93.49
2016-09-13T01:53:01.996Z,93.4
2016-09-13T01:54:00.901Z,93.49
2016-09-13T01:55:01.159Z,93.4
2016-09-13T01:56:02.453Z,93.11
2016-09-13T01:57:01.855Z,93.21
2016-09-13T01:58:01.245Z,92.82
2016-09-13T01:59:01.303Z,92.92
2016-09-13T02:00:01.956Z,93.02
2016-09-13T02:01:01.609Z,93.4
2016-09-13T02:02:01.559Z,94.35
2016-09-13T02:03:03.162Z,93.98
2016-09-13T02:04:01.432Z,93.59
2016-09-13T02:05:02.357Z,94.07
2016-09-13T02:06:01.953Z,94.17
2016-09-13T02:07:01.761Z,93.4
2016-09-13T02:08:02.759Z,93.88
2016-09-13T02:09:01.842Z,94.17
2016-09-13T02:10:01.701Z,94.26
2016-09-13T02:11:02.447Z,93.59
2016-09-13T02:12:01.825Z,93.3
2016-09-13T02:13:01.501Z,93.59
2016-09-13T02:14:02.486Z,93.4
2016-09-13T02:15:02.125Z,93.78
2016-09-13T02:16:01.919Z,93.69
2016-09-13T02:17:02.702Z,93.3
2016-09-13T02:18:02.287Z,93.11
2016-09-13T02:19:02.223Z,93.59
2016-09-13T02:20:02.354Z,93.11
2016-09-13T02:21:01.407Z,93.49
2016-09-13T02:22:01.751Z,93.59
2016-09-13T02:23:01.828Z,92.35
2016-09-13T02:24:01.647Z,93.21
2016-09-13T02:25:04.898Z,93.59
2016-09-13T02:26:01.552Z,93.49
2016-09-13T02:27:02.429Z,93.21
2016-09-13T02:28:01.849Z,93.3
2016-09-13T02:29:01.962Z,93.98
2016-09-13T02:30:02.347Z,93.3
2016-09-13T02:31:03.376Z,93.59
2016-09-13T02:32:02.892Z,93.59
2016-09-13T02:33:01.980Z,93.3
2016-09-13T02:34:02.490Z,93.3
2016-09-13T02:35:01.978Z,93.59
2016-09-13T02:36:02.683Z,93.78
2016-09-13T02:37:01.895Z,93.88
2016-09-13T02:38:02.485Z,93.21
2016-09-13T02:39:03.095Z,93.21
2016-09-13T02:40:02.756Z,93.02
2016-09-13T02:41:02.361Z,93.3
2016-09-13T02:42:02.049Z,93.3
2016-09-13T02:43:02.584Z,92.73
2016-09-13T02:44:02.616Z,93.21
2016-09-13T02:45:03.739Z,93.98
2016-09-13T02:46:02.349Z,93.78
2016-09-13T02:47:03.488Z,94.21
2016-09-13T02:48:03.522Z,93.64
2016-09-13T02:49:02.737Z,93.35
2016-09-13T02:50:02.029Z,93.83
2016-09-13T02:51:03.550Z,94.31
2016-09-13T02:52:02.677Z,94.4
2016-09-13T02:53:03.439Z,94.5
2016-09-13T02:54:03.314Z,96.61
2016-09-13T02:55:03.418Z,96.22
2016-09-13T02:56:02.527Z,95.36
2016-09-13T02:57:03.757Z,94.79
2016-09-13T02:58:02.389Z,94.5
2016-09-13T02:59:02.242Z,94.6
2016-09-13T03:00:03.106Z,93.83
2016-09-13T03:01:04.117Z,94.12
2016-09-13T03:02:04.560Z,93.26
2016-09-13T03:03:02.625Z,93.54
2016-09-13T03:04:03.621Z,93.54
2016-09-13T03:05:03.522Z,93.54
2016-09-13T03:06:03.007Z,93.45
2016-09-13T03:07:02.470Z,93.54
2016-09-13T03:08:03.577Z,93.93
2016-09-13T03:09:03.354Z,93.26
2016-09-13T03:10:04.305Z,93.83
2016-09-13T03:11:02.423Z,93.45
2016-09-13T03:12:02.947Z,93.64
2016-09-13T03:13:04.371Z,93.83
2016-09-13T03:14:03.253Z,93.54
2016-09-13T03:15:02.931Z,93.16
2016-09-13T03:16:03.386Z,93.26
2016-09-13T03:17:03.028Z,93.64
2016-09-13T03:18:03.554Z,93.26
2016-09-13T03:19:03.351Z,93.54
2016-09-13T03:20:03.333Z,93.16
2016-09-13T03:21:03.588Z,93.26
2016-09-13T03:22:03.549Z,93.64
2016-09-13T03:23:03.355Z,93.07
2016-09-13T03:24:02.719Z,93.35
2016-09-13T03:25:03.793Z,93.54
2016-09-13T03:26:03.060Z,93.83
2016-09-13T03:27:02.798Z,93.83
2016-09-13T03:28:03.907Z,93.83
2016-09-13T03:29:03.649Z,93.93
2016-09-13T03:30:03.757Z,93.83
2016-09-13T03:31:03.642Z,94.45
2016-09-13T03:32:03.008Z,94.45
2016-09-13T03:33:03.481Z,94.55
2016-09-13T03:34:03.486Z,94.55
2016-09-13T03:35:03.501Z,94.45
2016-09-13T03:36:03.974Z,94.36
2016-09-13T03:37:03.258Z,94.5
2016-09-13T03:38:03.378Z,94.12
2016-09-13T03:39:04.034Z,94.5
2016-09-13T03:40:04.356Z,94.4
2016-09-13T03:41:04.139Z,93.93
2016-09-13T03:42:04.093Z,93.64
2016-09-13T03:43:03.968Z,93.93
2016-09-13T03:44:03.398Z,93.93
2016-09-13T03:45:04.286Z,93.16
2016-09-13T03:46:04.236Z,93.45
2016-09-13T03:47:04.064Z,93.74
2016-09-13T03:48:04.110Z,93.16
2016-09-13T03:49:04.286Z,93.54
2016-09-13T03:50:03.408Z,93.35
2016-09-13T03:51:06.128Z,93.93
2016-09-13T03:52:05.218Z,93.26
2016-09-13T03:53:04.214Z,93.26
2016-09-13T03:54:03.963Z,93.45
2016-09-13T03:55:04.847Z,93.16
2016-09-13T03:56:03.642Z,93.74
2016-09-13T03:57:03.639Z,93.83
2016-09-13T03:58:03.938Z,94.26
2016-09-13T03:59:04.009Z,93.54
2016-09-13T04:00:04.212Z,93.83
2016-09-13T04:01:05.356Z,93.74
2016-09-13T04:02:04.926Z,93.88
2016-09-13T04:03:04.224Z,93.98
2016-09-13T04:04:04.294Z,94.74
2016-09-13T04:05:03.994Z,94.65
2016-09-13T04:06:03.831Z,94.93
2016-09-13T04:07:03.480Z,94.65
2016-09-13T04:08:04.025Z,95.61
2016-09-13T04:09:05.125Z,95.98
2016-09-13T04:10:05.078Z,96.56
2016-09-13T04:11:05.240Z,95.31
2016-09-13T04:12:05.873Z,96.56
2016-09-13T04:13:05.519Z,96.94
2016-09-13T04:14:03.936Z,96.08
2016-09-13T04:15:04.658Z,95.51
2016-09-13T04:16:05.246Z,95.12
2016-09-13T04:17:03.973Z,95.31
2016-09-13T04:18:04.302Z,95.22
2016-09-13T04:19:05.308Z,95.12
2016-09-13T04:20:04.029Z,95.22
2016-09-13T04:21:05.689Z,94.74
2016-09-13T04:22:05.344Z,95.22
2016-09-13T04:23:03.822Z,95.22
2016-09-13T04:24:03.835Z,95.7
2016-09-13T04:25:04.941Z,96.37
2016-09-13T04:26:05.375Z,96.56
2016-09-13T04:27:04.620Z,96.99
2016-09-13T04:28:04.835Z,96.42
2016-09-13T04:29:05.973Z,96.37
2016-09-13T04:30:05.622Z,96.08
2016-09-13T04:31:05.608Z,95.51
2016-09-13T04:32:06.422Z,95.31
2016-09-13T04:33:05.737Z,95.7
2016-09-13T04:34:05.972Z,95.61
2016-09-13T04:35:04.910Z,95.51
2016-09-13T04:36:05.395Z,95.22
2016-09-13T04:37:03.628Z,95.51
2016-09-13T04:38:04.157Z,95.31
2016-09-13T04:39:04.169Z,95.41
2016-09-13T04:40:05.632Z,95.31
2016-09-13T04:41:05.789Z,95.41
2016-09-13T04:42:05.333Z,95.41
2016-09-13T04:43:05.523Z,95.31
2016-09-13T04:44:05.443Z,95.61
2016-09-13T04:45:05.041Z,94.74
2016-09-13T04:46:05.119Z,94.84
2016-09-13T04:47:05.369Z,95.12
2016-09-13T04:48:04.648Z,95.41
2016-09-13T04:49:05.584Z,94.74
2016-09-13T04:50:04.995Z,94.74
2016-09-13T04:51:06.944Z,95.41
2016-09-13T04:52:05.735Z,95.65
2016-09-13T04:53:05.158Z,95.94
2016-09-13T04:54:05.333Z,96.13
2016-09-13T04:55:05.242Z,95.17
2016-09-13T04:56:05.390Z,95.07
2016-09-13T04:57:05.682Z,95.84
2016-09-13T04:58:06.244Z,96.89
2016-09-13T04:59:05.109Z,96.61
2016-09-13T05:00:05.428Z,96.13
2016-09-13T05:01:05.208Z,95.65
2016-09-13T05:02:05.290Z,95.51
2016-09-13T05:03:05.276Z,95.61
2016-09-13T05:04:05.928Z,95.51
2016-09-13T05:05:05.815Z,95.03
2016-09-13T05:06:05.614Z,95.41
2016-09-13T05:07:06.284Z,95.31
2016-09-13T05:08:05.901Z,95.51
2016-09-13T05:09:06.247Z,95.31
2016-09-13T05:10:05.227Z,95.46
2016-09-13T05:11:05.645Z,95.61
2016-09-13T05:12:05.827Z,95.22
2016-09-13T05:13:05.422Z,95.51
2016-09-13T05:14:07.337Z,95.51
2016-09-13T05:15:05.795Z,95.12
2016-09-13T05:16:05.701Z,95.03
2016-09-13T05:17:05.681Z,95.61
2016-09-13T05:18:05.848Z,95.61
2016-09-13T05:19:05.983Z,96.84
2016-09-13T05:20:05.994Z,96.32
2016-09-13T05:21:06.074Z,96.89
2016-09-13T05:22:05.096Z,96.7
2016-09-13T05:23:05.683Z,96.37
2016-09-13T05:24:06.100Z,96.47
2016-09-13T05:25:06.223Z,95.22
2016-09-13T05:26:05.787Z,95.51
2016-09-13T05:27:05.984Z,96.56
2016-09-13T05:28:05.892Z,95.31
2016-09-13T05:29:06.173Z,95.98
2016-09-13T05:30:05.581Z,95.98
2016-09-13T05:31:06.374Z,95.98
2016-09-13T05:32:06.624Z,96.18
2016-09-13T05:33:06.036Z,96.08
2016-09-13T05:34:05.830Z,95.98
2016-09-13T05:35:05.799Z,96.56
2016-09-13T05:36:05.947Z,96.18
2016-09-13T05:37:05.980Z,96.37
2016-09-13T05:38:06.779Z,96.37
2016-09-13T05:39:05.926Z,96.18
2016-09-13T05:40:06.343Z,95.61
2016-09-13T05:41:05.786Z,95.41
2016-09-13T05:42:05.960Z,96.18
2016-09-13T05:43:05.620Z,95.41
2016-09-13T05:44:06.425Z,95.31
2016-09-13T05:45:05.987Z,93.88
2016-09-13T05:46:06.678Z,95.31
2016-09-13T05:47:06.277Z,95.36
2016-09-13T05:48:05.876Z,95.31
2016-09-13T05:49:06.617Z,95.36
2016-09-13T05:50:06.249Z,95.31
2016-09-13T05:51:05.599Z,95.22
2016-09-13T05:52:06.796Z,95.89
2016-09-13T05:53:06.715Z,96.18
2016-09-13T05:54:06.384Z,96.18
2016-09-13T05:55:06.118Z,95.41
2016-09-13T05:56:05.934Z,94.55
2016-09-13T05:57:05.530Z,94.21
2016-09-13T05:58:05.733Z,94.4
2016-09-13T06:00:48.110Z,0
2016-09-13T06:01:48.808Z,0
2016-09-13T06:02:48.246Z,0
2016-09-13T06:03:47.144Z,0
2016-09-13T06:04:49.432Z,0
2016-09-13T06:05:47.817Z,0
2016-09-13T06:06:48.423Z,0
2016-09-13T06:07:48.234Z,0
2016-09-13T06:08:48.344Z,0
2016-09-13T06:09:48.586Z,0
2016-09-13T06:10:48.615Z,0
2016-09-13T06:11:48.757Z,0
2016-09-13T06:12:48.798Z,0
2016-09-13T06:13:48.713Z,0
2016-09-13T06:14:48.283Z,0
2016-09-13T06:15:49.159Z,0
2016-09-13T06:16:48.571Z,0
2016-09-13T06:17:48.123Z,0
2016-09-13T06:18:48.556Z,0
2016-09-13T06:19:48.540Z,0
2016-09-13T06:20:48.493Z,0
2016-09-13T06:21:49.082Z,0
2016-09-13T06:22:48.883Z,0
2016-09-13T06:23:48.641Z,0
2016-09-13T06:24:48.422Z,0
2016-09-13T06:25:48.423Z,0
2016-09-13T06:26:48.934Z,0
2016-09-13T06:27:48.776Z,0
2016-09-13T06:28:48.666Z,0
2016-09-13T06:29:49.981Z,0
2016-09-13T06:30:48.349Z,0
2016-09-13T06:31:48.193Z,0
2016-09-13T06:32:48.740Z,0
2016-09-13T06:33:49.402Z,0
2016-09-13T06:34:48.936Z,0
2016-09-13T06:35:49.700Z,0
2016-09-13T06:36:48.721Z,0
2016-09-13T06:37:49.736Z,0
2016-09-13T06:38:49.602Z,0
2016-09-13T06:39:51.339Z,0
2016-09-13T06:40:49.768Z,0
2016-09-13T06:41:49.297Z,0
2016-09-13T06:42:48.910Z,0
2016-09-13T06:43:48.402Z,0
2016-09-13T06:44:49.651Z,0
2016-09-13T06:45:49.662Z,0
2016-09-13T06:46:49.227Z,0
2016-09-13T06:47:49.415Z,0
2016-09-13T06:48:49.207Z,0
2016-09-13T06:49:48.782Z,0
2016-09-13T06:50:48.786Z,0
2016-09-13T06:51:49.279Z,0
2016-09-13T06:52:49.315Z,0
2016-09-13T06:53:48.895Z,0
2016-09-13T06:54:49.346Z,0
2016-09-13T06:55:49.617Z,0
2016-09-13T06:56:49.776Z,0
2016-09-13T06:57:48.826Z,0
2016-09-13T06:58:50.210Z,0
2016-09-13T06:59:49.709Z,0
2016-09-13T07:00:49.620Z,0
2016-09-13T07:01:50.069Z,0
2016-09-13T07:02:49.629Z,0
2016-09-13T07:03:49.952Z,0
2016-09-13T07:04:48.787Z,0
2016-09-13T07:05:49.224Z,0
2016-09-13T07:06:49.150Z,0
2016-09-13T07:07:48.739Z,0
2016-09-13T07:08:50.188Z,0
2016-09-13T07:09:49.324Z,0
2016-09-13T07:10:49.764Z,0
2016-09-13T07:11:49.826Z,0
2016-09-13T07:12:49.507Z,0
2016-09-13T07:13:49.995Z,0
2016-09-13T07:14:49.211Z,0
2016-09-13T07:15:50.912Z,0
2016-09-13T07:16:49.666Z,0
2016-09-13T07:17:49.684Z,0
2016-09-13T07:18:49.712Z,0
2016-09-13T07:19:49.116Z,0
2016-09-13T07:20:51.015Z,0
2016-09-13T07:21:50.304Z,0
2016-09-13T07:22:49.993Z,0
2016-09-13T07:23:50.265Z,0
2016-09-13T07:24:49.919Z,0
2016-09-13T07:25:49.752Z,0
2016-09-13T07:26:49.500Z,0
2016-09-13T07:27:49.927Z,0
2016-09-13T07:28:50.072Z,0
2016-09-13T07:29:49.617Z,0
2016-09-13T07:30:50.293Z,0
2016-09-13T07:31:50.446Z,0
2016-09-13T07:32:50.140Z,0
2016-09-13T07:33:50.074Z,0
2016-09-13T07:34:50.548Z,0
2016-09-13T07:35:51.166Z,0
2016-09-13T07:36:50.911Z,0
2016-09-13T07:37:51.466Z,0
2016-09-13T07:38:49.931Z,0
2016-09-13T07:39:51.236Z,0
2016-09-13T07:40:49.922Z,0
2016-09-13T07:41:51.220Z,0
2016-09-13T07:42:49.838Z,0
2016-09-13T07:43:49.832Z,0
2016-09-13T07:44:49.926Z,0
2016-09-13T07:45:52.226Z,0
2016-09-13T07:46:50.286Z,0
2016-09-13T07:47:51.251Z,0
2016-09-13T07:48:49.878Z,0
2016-09-13T07:49:50.133Z,0
2016-09-13T07:50:51.237Z,0
2016-09-13T07:51:50.118Z,0
2016-09-13T07:52:50.555Z,0
2016-09-13T07:53:50.983Z,0
2016-09-13T07:54:50.955Z,0
2016-09-13T07:55:50.241Z,0
2016-09-13T07:56:50.787Z,0
2016-09-13T07:57:50.188Z,0
2016-09-13T07:58:51.185Z,0
2016-09-13T07:59:50.463Z,0
2016-09-13T08:00:51.122Z,0
2016-09-13T08:01:50.451Z,0
2016-09-13T08:02:51.054Z,0
2016-09-13T08:03:51.790Z,0
2016-09-13T08:04:50.173Z,0
2016-09-13T08:05:50.929Z,0
2016-09-13T08:06:51.405Z,0
2016-09-13T08:07:51.495Z,0
2016-09-13T08:08:51.044Z,0
2016-09-13T08:09:50.577Z,0
2016-09-13T08:10:50.867Z,0
2016-09-13T08:11:53.471Z,0
2016-09-13T08:12:50.891Z,0
2016-09-13T08:13:51.125Z,0
2016-09-13T08:14:51.594Z,0
2016-09-13T08:15:51.380Z,0
2016-09-13T08:16:51.272Z,0
2016-09-13T08:17:51.433Z,0
2016-09-13T08:18:51.600Z,0
2016-09-13T08:19:50.445Z,0
2016-09-13T08:20:50.697Z,0
2016-09-13T08:21:51.910Z,0
2016-09-13T08:22:50.957Z,0
2016-09-13T08:23:51.638Z,0
2016-09-13T08:24:51.112Z,0
2016-09-13T08:25:51.252Z,0
2016-09-13T08:26:51.610Z,0
2016-09-13T08:27:51.553Z,0
2016-09-13T08:28:51.554Z,0
2016-09-13T08:29:51.568Z,0
2016-09-13T08:30:52.121Z,0
2016-09-13T08:31:52.375Z,0
2016-09-13T08:32:51.506Z,0
2016-09-13T08:33:53.399Z,0
2016-09-13T08:34:52.604Z,0
2016-09-13T08:35:51.769Z,0
2016-09-13T08:36:51.357Z,0
2016-09-13T08:37:51.754Z,0
2016-09-13T08:38:52.474Z,0
2016-09-13T08:39:51.547Z,0
2016-09-13T08:40:51.447Z,0
2016-09-13T08:41:52.034Z,0
2016-09-13T08:42:52.874Z,0
2016-09-13T08:43:52.816Z,0
2016-09-13T08:44:52.526Z,0
2016-09-13T08:45:51.594Z,0
2016-09-13T08:46:51.611Z,0
2016-09-13T08:47:52.761Z,0
2016-09-13T08:48:51.912Z,0
2016-09-13T08:49:53.061Z,0
2016-09-13T08:50:52.050Z,0
2016-09-13T08:51:52.664Z,0
2016-09-13T08:52:52.417Z,0
2016-09-13T08:53:52.489Z,0
2016-09-13T08:54:52.115Z,0
2016-09-13T08:55:51.972Z,0
2016-09-13T08:56:52.435Z,0
2016-09-13T08:57:52.067Z,0
2016-09-13T08:58:52.740Z,0
2016-09-13T08:59:52.512Z,0
2016-09-13T09:00:52.532Z,0
2016-09-13T09:01:51.878Z,0
2016-09-13T09:02:51.908Z,0
2016-09-13T09:03:53.600Z,0
2016-09-13T09:04:52.520Z,0
2016-09-13T09:05:52.505Z,0
2016-09-13T09:06:52.546Z,0
2016-09-13T09:07:52.035Z,0
2016-09-13T09:08:52.143Z,0
2016-09-13T09:09:53.384Z,0
2016-09-13T09:10:52.306Z,0
2016-09-13T09:11:52.609Z,0
2016-09-13T09:12:53.183Z,0
2016-09-13T09:13:52.267Z,0
2016-09-13T09:14:52.527Z,0
2016-09-13T09:15:52.609Z,0
2016-09-13T09:16:52.776Z,0
2016-09-13T09:17:52.606Z,0
2016-09-13T09:18:53.671Z,0
2016-09-13T09:19:53.728Z,0
2016-09-13T09:20:53.437Z,0
2016-09-13T09:21:52.794Z,0
2016-09-13T09:22:52.648Z,0
2016-09-13T09:23:53.891Z,0
2016-09-13T09:24:53.510Z,0
2016-09-13T09:25:52.959Z,0
2016-09-13T09:26:52.662Z,0
2016-09-13T09:27:53.006Z,0
2016-09-13T09:28:54.387Z,0
2016-09-13T09:29:53.430Z,0
2016-09-13T09:30:53.214Z,0
2016-09-13T09:31:54.005Z,0
2016-09-13T09:32:52.840Z,0
2016-09-13T09:33:53.437Z,0
2016-09-13T09:34:53.483Z,0
2016-09-13T09:35:54.190Z,0
2016-09-13T09:36:54.981Z,0
2016-09-13T09:37:52.742Z,0
2016-09-13T09:38:53.424Z,0
2016-09-13T09:39:53.168Z,0
2016-09-13T09:40:53.118Z,0
2016-09-13T09:41:54.022Z,0
2016-09-13T09:42:54.555Z,0
2016-09-13T09:43:54.505Z,0
2016-09-13T09:44:53.523Z,0
2016-09-13T09:45:54.661Z,0
2016-09-13T09:46:53.498Z,0
2016-09-13T09:47:54.859Z,0
2016-09-13T09:48:53.447Z,0
2016-09-13T09:49:53.542Z,0
2016-09-13T09:50:53.839Z,0
2016-09-13T09:51:54.497Z,0
2016-09-13T09:52:54.888Z,0
2016-09-13T09:53:53.813Z,0
2016-09-13T09:54:53.583Z,0
2016-09-13T09:55:53.789Z,0
2016-09-13T09:56:54.233Z,0
2016-09-13T09:57:55.277Z,0
2016-09-13T09:58:54.117Z,0
2016-09-13T09:59:53.592Z,0
2016-09-13T10:00:54.766Z,0
2016-09-13T10:01:54.474Z,0
2016-09-13T10:02:54.350Z,0
2016-09-13T10:03:54.904Z,0
2016-09-13T10:04:54.477Z,0
2016-09-13T10:05:54.195Z,0
2016-09-13T10:06:54.588Z,0
2016-09-13T10:07:54.491Z,0
2016-09-13T10:08:54.482Z,0
2016-09-13T10:09:55.190Z,0
2016-09-13T10:10:54.678Z,0
2016-09-13T10:11:54.977Z,0
2016-09-13T10:12:54.725Z,0
2016-09-13T10:13:54.747Z,0
2016-09-13T10:14:54.430Z,0
2016-09-13T10:15:56.007Z,0
2016-09-13T10:16:54.800Z,0
2016-09-13T10:17:55.213Z,0
2016-09-13T10:18:54.788Z,0
2016-09-13T10:19:54.804Z,0
2016-09-13T10:20:54.859Z,0
2016-09-13T10:21:55.274Z,0
2016-09-13T10:22:55.201Z,0
2016-09-13T10:23:54.812Z,0
2016-09-13T10:24:54.811Z,0
2016-09-13T10:25:54.509Z,0
2016-09-13T10:26:54.853Z,0
2016-09-13T10:27:54.868Z,0
2016-09-13T10:28:55.201Z,0
2016-09-13T10:29:54.771Z,0
2016-09-13T10:30:54.808Z,0
2016-09-13T10:31:55.375Z,0
2016-09-13T10:32:55.347Z,0
2016-09-13T10:33:55.291Z,0
2016-09-13T10:34:56.796Z,0
2016-09-13T10:35:55.874Z,0
2016-09-13T10:36:55.593Z,0
2016-09-13T10:37:55.048Z,0
2016-09-13T10:38:54.806Z,0
2016-09-13T10:39:55.260Z,0
2016-09-13T10:40:55.745Z,0
2016-09-13T10:41:55.645Z,0
2016-09-13T10:42:55.738Z,0
2016-09-13T10:43:55.050Z,0
2016-09-13T10:44:55.795Z,0
2016-09-13T10:45:56.171Z,0
2016-09-13T10:46:56.490Z,0
2016-09-13T10:47:55.455Z,0
2016-09-13T10:48:55.069Z,0
2016-09-13T10:49:55.679Z,0
2016-09-13T10:50:55.595Z,0
2016-09-13T10:51:55.790Z,0
2016-09-13T10:52:55.793Z,0
2016-09-13T10:53:55.992Z,0
2016-09-13T10:54:55.598Z,0
2016-09-13T10:55:55.826Z,0
2016-09-13T10:56:56.346Z,0
2016-09-13T10:57:55.695Z,0
2016-09-13T10:58:56.108Z,0
2016-09-13T10:59:56.648Z,0
2016-09-13T11:00:55.854Z,0
2016-09-13T11:01:56.122Z,0
2016-09-13T11:02:55.745Z,0
2016-09-13T11:03:55.743Z,0
2016-09-13T11:04:56.272Z,0
2016-09-13T11:05:57.315Z,0
2016-09-13T11:06:55.668Z,0
2016-09-13T11:07:58.429Z,0
2016-09-13T11:08:57.428Z,0
2016-09-13T11:09:57.576Z,0
2016-09-13T11:10:56.226Z,0
2016-09-13T11:11:56.705Z,0
2016-09-13T11:12:56.364Z,0
2016-09-13T11:13:56.389Z,0
2016-09-13T11:14:57.723Z,0
2016-09-13T11:15:56.925Z,0
2016-09-13T11:16:57.397Z,0
2016-09-13T11:17:57.541Z,0
2016-09-13T11:18:56.548Z,0
2016-09-13T11:19:56.625Z,0
2016-09-13T11:20:56.490Z,0
2016-09-13T11:21:56.963Z,0
2016-09-13T11:22:56.434Z,0
2016-09-13T11:23:56.494Z,0
2016-09-13T11:24:57.502Z,0
2016-09-13T11:25:56.868Z,0
2016-09-13T11:26:58.111Z,0
2016-09-13T11:27:56.655Z,0
2016-09-13T11:28:57.030Z,0
2016-09-13T11:29:56.678Z,0
2016-09-13T11:30:56.535Z,0
2016-09-13T11:31:56.793Z,0
2016-09-13T11:32:56.812Z,0
2016-09-13T11:33:57.512Z,0
2016-09-13T11:34:57.580Z,0
2016-09-13T11:35:57.897Z,0
2016-09-13T11:36:58.296Z,0
2016-09-13T11:37:57.829Z,0
2016-09-13T11:38:57.510Z,0
2016-09-13T11:39:56.964Z,0
2016-09-13T11:40:57.796Z,0
2016-09-13T11:41:57.999Z,0
2016-09-13T11:42:57.480Z,0
2016-09-13T11:43:58.536Z,0
2016-09-13T11:44:57.970Z,0
2016-09-13T11:45:58.026Z,0
2016-09-13T11:46:57.730Z,0
2016-09-13T11:47:57.671Z,0
2016-09-13T11:48:57.913Z,0
2016-09-13T11:49:57.965Z,0
2016-09-13T11:50:57.492Z,0
2016-09-13T11:51:59.520Z,0
2016-09-13T11:52:57.868Z,0
2016-09-13T11:53:58.327Z,0
2016-09-13T11:54:58.110Z,0
2016-09-13T11:55:58.140Z,0
2016-09-13T11:56:57.904Z,0
2016-09-13T11:57:57.600Z,0
2016-09-13T11:58:58.772Z,0
2016-09-13T11:59:58.528Z,0
2016-09-13T12:00:58.090Z,0
2016-09-13T12:01:58.061Z,0
2016-09-13T12:02:57.774Z,0
2016-09-13T12:03:58.157Z,0
2016-09-13T12:04:58.812Z,0
2016-09-13T12:05:58.014Z,0
2016-09-13T12:06:58.249Z,0
2016-09-13T12:07:58.835Z,0
2016-09-13T12:08:59.469Z,0
2016-09-13T12:09:58.416Z,0
2016-09-13T12:10:58.796Z,0
2016-09-13T12:11:58.047Z,0
2016-09-13T12:13:00.334Z,0
2016-09-13T12:13:58.352Z,0
2016-09-13T12:14:58.725Z,0
2016-09-13T12:15:58.946Z,0
2016-09-13T12:16:59.806Z,0
2016-09-13T12:17:58.496Z,0
2016-09-13T12:18:59.536Z,0
2016-09-13T12:19:59.226Z,0
2016-09-13T12:20:58.941Z,0
2016-09-13T12:21:59.618Z,0
2016-09-13T12:22:58.783Z,0
2016-09-13T12:23:59.406Z,0
2016-09-13T12:24:58.614Z,0
2016-09-13T12:25:59.142Z,0
2016-09-13T12:26:59.207Z,0
2016-09-13T12:27:58.504Z,0
2016-09-13T12:28:58.513Z,0
2016-09-13T12:29:59.862Z,0
2016-09-13T12:30:59.908Z,0
2016-09-13T12:32:00.372Z,0
2016-09-13T12:33:00.274Z,0
2016-09-13T12:33:59.642Z,0
2016-09-13T12:34:59.529Z,0
2016-09-13T12:35:59.173Z,0
2016-09-13T12:36:59.740Z,0
2016-09-13T12:37:59.028Z,0
2016-09-13T12:38:59.640Z,0
2016-09-13T12:39:59.731Z,0
2016-09-13T12:40:59.255Z,0
2016-09-13T12:42:01.119Z,0
2016-09-13T12:42:59.306Z,0
2016-09-13T12:44:00.508Z,0
2016-09-13T12:45:00.709Z,0
2016-09-13T12:46:00.268Z,0
2016-09-13T12:46:59.464Z,0
2016-09-13T12:48:00.676Z,22.96
2016-09-13T12:49:00.460Z,22.3
2016-09-13T12:50:00.283Z,21.67
2016-09-13T12:51:00.355Z,22.08
2016-09-13T12:52:00.339Z,22.82
2016-09-13T12:53:00.837Z,22.15
2016-09-13T12:54:00.769Z,22.66
2016-09-13T12:55:01.041Z,22.78
2016-09-13T12:56:00.999Z,22.78
2016-09-13T12:56:59.767Z,21.67
2016-09-13T12:58:00.797Z,22.7
2016-09-13T12:59:00.906Z,21.53
2016-09-13T13:00:01.044Z,22.22
2016-09-13T13:01:01.316Z,22.7
2016-09-13T13:02:00.510Z,23.63
2016-09-13T13:03:04.194Z,23.52
2016-09-13T13:04:00.203Z,23.64
2016-09-13T13:04:59.742Z,24.32
2016-09-13T13:06:00.689Z,23.64
2016-09-13T13:07:02.385Z,22.19
2016-09-13T13:08:01.492Z,23.11
2016-09-13T13:09:00.220Z,22.09
2016-09-13T13:10:00.097Z,23.16
2016-09-13T13:11:00.342Z,22.2
2016-09-13T13:12:00.725Z,22.94
2016-09-13T13:13:00.913Z,21.86
2016-09-13T13:14:00.265Z,21
2016-09-13T13:15:01.289Z,20.01
2016-09-13T13:16:00.880Z,20.83
2016-09-13T13:17:01.734Z,22.2
2016-09-13T13:18:01.011Z,22.75
2016-09-13T13:19:00.784Z,21.29
2016-09-13T13:20:00.696Z,24.04
2016-09-13T13:21:00.314Z,22.91
2016-09-13T13:22:00.718Z,21.37
2016-09-13T13:23:01.455Z,19.34
2016-09-13T13:24:01.201Z,20.24
2016-09-13T13:25:02.399Z,19.34
2016-09-13T13:26:01.109Z,19.51
2016-09-13T13:27:01.065Z,19.73
2016-09-13T13:28:00.962Z,18.83
2016-09-13T13:29:01.161Z,20.52
2016-09-13T13:30:01.938Z,18.52
2016-09-13T13:31:01.561Z,18.23
2016-09-13T13:32:02.005Z,17.33
2016-09-13T13:33:01.597Z,17.56
2016-09-13T13:34:00.785Z,19.02
2016-09-13T13:35:01.462Z,19.01
2016-09-13T13:36:01.206Z,18.74
2016-09-13T13:37:01.584Z,17.57
2016-09-13T13:38:01.660Z,17.85
2016-09-13T13:39:03.132Z,18.13
2016-09-13T13:40:02.903Z,17.83
2016-09-13T13:41:01.542Z,18.31
2016-09-13T13:42:01.893Z,17.46
2016-09-13T13:43:01.780Z,18.13
2016-09-13T13:44:03.192Z,19.51
2016-09-13T13:45:02.235Z,19.49
2016-09-13T13:46:01.621Z,20.3
2016-09-13T13:47:02.068Z,20.39
2016-09-13T13:48:02.624Z,20.2
2016-09-13T13:49:01.960Z,19.6